Time;durP1;ratioP1;P1;durP2;ratioP2;P2;SDS_P1;SDS_P2;PMS_P1;PMS_P2;Temp;Humidity;BMP_temperature;BMP_pressure;BME280_temperature;BME280_humidity;BME280_pressure;Samples;Min_cycle;Max_cycle;Signal;HPM_P1;HPM_P2
2022/07/05 00:02:16;;;;;;;5.30;2.80;;;17.20;99.90;;;;;;5127670;28;20208;-85
2022/07/05 00:04:44;;;;;;;5.17;2.70;;;17.00;99.90;;;;;;5127181;28;20205;-85
2022/07/05 00:07:19;;;;;;;2.53;2.33;;;;;;;;;;5127617;28;20179;-84
2022/07/05 00:09:49;;;;;;;2.53;2.33;;;16.90;99.90;;;;;;5129147;28;20652;-85
2022/07/05 00:12:16;;;;;;;5.77;2.77;;;17.10;99.90;;;;;;5127679;28;20208;-85
2022/07/05 00:14:43;;;;;;;5.40;2.10;;;17.20;99.90;;;;;;5127704;28;20173;-84
2022/07/05 00:17:09;;;;;;;3.50;2.43;;;17.20;99.90;;;;;;5127574;28;20170;-84
2022/07/05 00:19:35;;;;;;;3.13;2.57;;;;;;;;;;5126990;28;20181;-85
2022/07/05 00:22:01;;;;;;;3.60;2.23;;;;;;;;;;5126876;28;20647;-85
2022/07/05 00:24:27;;;;;;;3.80;2.27;;;17.20;99.90;;;;;;5125803;28;20239;-84
2022/07/05 00:26:53;;;;;;;3.73;2.40;;;;;;;;;;5126716;28;20660;-85
2022/07/05 00:29:19;;;;;;;3.80;2.30;;;17.40;99.90;;;;;;5125573;28;20224;-85
2022/07/05 00:31:45;;;;;;;2.40;2.20;;;;;;;;;;5127237;28;20190;-85
2022/07/05 00:34:11;;;;;;;2.93;2.20;;;;;;;;;;5125652;28;20186;-85
2022/07/05 00:36:37;;;;;;;3.10;2.80;;;17.20;99.90;;;;;;5127969;28;20173;-85
2022/07/05 00:39:03;;;;;;;3.73;2.40;;;17.20;99.90;;;;;;5126050;28;20225;-85
2022/07/05 00:41:29;;;;;;;3.53;2.33;;;17.20;99.90;;;;;;5126038;28;20207;-85
2022/07/05 00:44:00;;;;;;;4.07;2.43;;;17.00;99.90;;;;;;5126256;28;20266;-85
2022/07/05 00:46:27;;;;;;;2.50;2.30;;;;;;;;;;5127672;27;20192;-85
2022/07/05 00:48:53;;;;;;;4.00;2.20;;;17.20;99.90;;;;;;5126563;28;20196;-85
2022/07/05 00:51:19;;;;;;;2.73;2.37;;;;;;;;;;5125644;28;20725;-85
2022/07/05 00:53:45;;;;;;;4.37;2.13;;;17.30;99.90;;;;;;5127533;28;20176;-85
2022/07/05 00:56:12;;;;;;;2.60;2.40;;;17.10;99.90;;;;;;5127235;28;20592;-85
2022/07/05 00:58:38;;;;;;;3.50;2.27;;;17.30;99.90;;;;;;5126748;28;20181;-85
2022/07/05 01:01:08;;;;;;;3.20;2.20;;;17.20;99.90;;;;;;5125359;28;20207;-85
2022/07/05 01:03:34;;;;;;;6.73;2.37;;;17.20;99.90;;;;;;5126450;28;20181;-85
2022/07/05 01:06:02;;;;;;;2.23;2.03;;;17.20;99.90;;;;;;5126233;28;20257;-85
2022/07/05 01:08:28;;;;;;;2.33;2.13;;;17.10;99.90;;;;;;5126028;28;20199;-85
2022/07/05 01:10:55;;;;;;;3.47;1.97;;;17.20;99.90;;;;;;5124997;28;20181;-84
2022/07/05 01:13:22;;;;;;;4.20;2.20;;;17.20;99.90;;;;;;5127165;28;20538;-85
2022/07/05 01:15:48;;;;;;;2.47;2.00;;;17.20;99.90;;;;;;5125827;28;20190;-85
2022/07/05 01:18:14;;;;;;;2.47;2.23;;;;;;;;;;5126749;28;20169;-85
2022/07/05 01:20:41;;;;;;;5.30;2.30;;;17.20;99.90;;;;;;5127573;28;20193;-85
2022/07/05 01:23:08;;;;;;;5.27;2.40;;;;;;;;;;5125235;28;20201;-85
2022/07/05 01:25:34;;;;;;;6.63;2.40;;;;;;;;;;5127293;28;20652;-85
2022/07/05 01:28:01;;;;;;;4.93;2.47;;;;;;;;;;5124978;28;20179;-84
2022/07/05 01:30:27;;;;;;;3.03;2.20;;;;;;;;;;5124950;28;20287;-85
2022/07/05 01:32:53;;;;;;;2.30;2.10;;;;;;;;;;5126578;28;20201;-85
2022/07/05 01:35:23;;;;;;;3.80;2.30;;;;;;;;;;5126250;28;20197;-85
2022/07/05 01:37:50;;;;;;;2.63;2.20;;;17.10;99.90;;;;;;5124463;28;20253;-85
2022/07/05 01:40:17;;;;;;;5.20;2.80;;;17.00;99.90;;;;;;5124945;28;20185;-85
2022/07/05 01:42:43;;;;;;;4.97;2.40;;;;;;;;;;5125551;28;20204;-84
2022/07/05 01:45:09;;;;;;;5.93;2.70;;;17.30;99.90;;;;;;5124640;28;20191;-85
2022/07/05 01:47:40;;;;;;;4.73;2.40;;;17.30;99.90;;;;;;5123167;28;20192;-84
2022/07/05 01:50:08;;;;;;;2.90;2.53;;;17.30;99.90;;;;;;5125093;28;20257;-85
2022/07/05 01:52:38;;;;;;;4.53;2.50;;;17.30;99.90;;;;;;5123417;28;20203;-85
2022/07/05 01:55:04;;;;;;;6.73;2.50;;;17.30;99.90;;;;;;5123501;28;20181;-85
2022/07/05 01:57:30;;;;;;;2.80;2.47;;;17.30;99.90;;;;;;5123069;28;20234;-84
2022/07/05 01:59:56;;;;;;;3.23;2.30;;;;;;;;;;5125017;28;20200;-85
2022/07/05 02:02:22;;;;;;;3.93;2.73;;;17.20;99.90;;;;;;5125689;28;20205;-85
2022/07/05 02:04:48;;;;;;;2.67;2.13;;;;;;;;;;5125496;28;20171;-85
2022/07/05 02:07:13;;;;;;;4.20;2.40;;;17.20;99.90;;;;;;5123780;28;20185;-85
2022/07/05 02:09:39;;;;;;;3.17;2.87;;;17.20;99.90;;;;;;5124031;28;20212;-85
2022/07/05 02:12:06;;;;;;;3.57;2.60;;;17.20;99.90;;;;;;5124037;28;20198;-85
2022/07/05 02:14:32;;;;;;;6.03;2.70;;;;;;;;;;5124566;28;20513;-85
2022/07/05 02:16:58;;;;;;;6.07;2.90;;;;;;;;;;5124470;28;20184;-85
2022/07/05 02:19:24;;;;;;;4.13;2.77;;;17.20;99.90;;;;;;5124381;28;20184;-85
2022/07/05 02:21:50;;;;;;;5.07;2.43;;;;;;;;;;5126142;28;20266;-85
2022/07/05 02:24:16;;;;;;;5.50;2.30;;;17.20;99.90;;;;;;5124161;28;20206;-85
2022/07/05 02:26:42;;;;;;;3.03;2.73;;;;;;;;;;5126295;28;20241;-85
2022/07/05 02:29:07;;;;;;;6.47;3.80;;;17.10;99.90;;;;;;5124271;28;20214;-85
2022/07/05 02:31:33;;;;;;;4.70;2.80;;;17.10;99.90;;;;;;5124446;28;20199;-85
2022/07/05 02:33:59;;;;;;;3.13;2.50;;;17.10;99.90;;;;;;5126154;28;20226;-85
2022/07/05 02:36:25;;;;;;;3.53;2.13;;;17.10;99.90;;;;;;5125395;28;20173;-85
2022/07/05 02:38:51;;;;;;;4.03;2.60;;;17.10;99.90;;;;;;5124712;28;20200;-85
2022/07/05 02:41:17;;;;;;;4.13;2.53;;;17.10;99.90;;;;;;5125782;28;20215;-85
2022/07/05 02:43:43;;;;;;;2.97;2.17;;;17.10;99.90;;;;;;5124089;28;20213;-85
2022/07/05 02:46:09;;;;;;;3.23;2.63;;;17.10;99.90;;;;;;5124976;28;20178;-85
2022/07/05 02:48:36;;;;;;;3.40;2.73;;;17.00;99.90;;;;;;5123552;28;20216;-85
2022/07/05 02:51:03;;;;;;;3.50;2.60;;;16.90;99.90;;;;;;5123379;28;20206;-85
2022/07/05 02:53:29;;;;;;;3.10;2.67;;;16.90;99.90;;;;;;5123082;28;20177;-85
2022/07/05 02:55:55;;;;;;;5.10;2.70;;;16.90;99.90;;;;;;5123844;28;20189;-85
2022/07/05 02:58:21;;;;;;;5.03;2.70;;;16.80;99.90;;;;;;5124535;28;20268;-85
2022/07/05 03:00:48;;;;;;;5.90;2.80;;;16.80;99.90;;;;;;5130222;28;20203;-85
2022/07/05 03:03:14;;;;;;;3.00;2.70;;;16.80;99.90;;;;;;5127697;28;20207;-85
2022/07/05 03:05:40;;;;;;;3.13;2.80;;;16.80;99.90;;;;;;5129204;28;20184;-85
2022/07/05 03:08:06;;;;;;;2.87;2.57;;;16.80;99.90;;;;;;5129523;28;20544;-85
2022/07/05 03:10:33;;;;;;;2.90;2.60;;;16.80;99.90;;;;;;5129324;28;20204;-85
2022/07/05 03:12:59;;;;;;;2.80;2.60;;;16.80;99.90;;;;;;5130319;28;20213;-85
2022/07/05 03:15:24;;;;;;;3.00;2.70;;;16.80;99.90;;;;;;5128340;28;20574;-85
2022/07/05 03:17:51;;;;;;;2.90;2.50;;;16.80;99.90;;;;;;5128064;28;20207;-85
2022/07/05 03:20:16;;;;;;;5.83;2.90;;;16.80;99.90;;;;;;5128203;28;20522;-85
2022/07/05 03:22:42;;;;;;;3.00;2.70;;;16.70;99.90;;;;;;5129099;28;20199;-85
2022/07/05 03:25:08;;;;;;;2.90;2.60;;;16.70;99.90;;;;;;5130327;28;20171;-86
2022/07/05 03:27:34;;;;;;;3.03;2.50;;;16.70;99.90;;;;;;5129400;28;20174;-85
2022/07/05 03:30:00;;;;;;;4.30;2.80;;;;;;;;;;5130174;28;20203;-86
2022/07/05 03:32:26;;;;;;;4.77;3.03;;;16.70;99.90;;;;;;5128937;28;20210;-86
2022/07/05 03:34:51;;;;;;;3.93;2.70;;;16.70;99.90;;;;;;5129889;28;20175;-85
2022/07/05 03:37:17;;;;;;;3.37;2.70;;;16.70;99.90;;;;;;5128797;28;20167;-85
2022/07/05 03:39:43;;;;;;;2.90;2.60;;;;;;;;;;5128925;28;20187;-85
2022/07/05 03:42:09;;;;;;;5.43;2.80;;;16.70;99.90;;;;;;5128896;28;20200;-85
2022/07/05 03:44:36;;;;;;;3.93;2.50;;;16.70;99.90;;;;;;5130599;28;20191;-85
2022/07/05 03:47:02;;;;;;;3.50;2.90;;;16.60;99.90;;;;;;5128432;28;20172;-84
2022/07/05 03:49:28;;;;;;;3.60;2.87;;;16.60;99.90;;;;;;5129425;28;20228;-85
2022/07/05 03:51:54;;;;;;;4.10;3.27;;;16.60;99.90;;;;;;5129226;28;20196;-86
2022/07/05 03:54:19;;;;;;;7.60;3.03;;;16.60;99.90;;;;;;5128859;28;20175;-86
2022/07/05 03:56:45;;;;;;;6.73;2.60;;;16.60;99.90;;;;;;5131198;28;20175;-86
2022/07/05 03:59:11;;;;;;;3.30;2.60;;;16.60;99.90;;;;;;5128650;28;20187;-86
2022/07/05 04:01:36;;;;;;;3.30;3.00;;;16.60;99.90;;;;;;5130631;28;20195;-86
2022/07/05 04:04:02;;;;;;;3.67;3.30;;;16.60;99.90;;;;;;5129202;28;20199;-85
2022/07/05 04:06:28;;;;;;;4.57;3.00;;;16.60;99.90;;;;;;5128895;28;20171;-86
2022/07/05 04:08:54;;;;;;;4.67;2.77;;;16.60;99.90;;;;;;5129312;28;20195;-85
2022/07/05 04:11:20;;;;;;;4.93;2.90;;;16.70;99.90;;;;;;5130413;28;20198;-86
2022/07/05 04:13:46;;;;;;;3.83;2.97;;;16.70;99.90;;;;;;5129894;28;20236;-85
2022/07/05 04:16:11;;;;;;;5.57;3.10;;;16.70;99.90;;;;;;5129344;28;20704;-85
2022/07/05 04:18:37;;;;;;;4.13;3.20;;;16.70;99.90;;;;;;5130397;28;20183;-86
2022/07/05 04:21:03;;;;;;;4.30;3.27;;;16.70;99.90;;;;;;5130405;28;20175;-85
2022/07/05 04:23:29;;;;;;;5.60;3.27;;;16.70;99.90;;;;;;5128154;28;20167;-85
2022/07/05 04:25:55;;;;;;;4.33;3.17;;;16.70;99.90;;;;;;5128937;28;20174;-85
2022/07/05 04:28:21;;;;;;;4.20;3.00;;;16.70;99.90;;;;;;5127312;28;20183;-85
2022/07/05 04:30:47;;;;;;;5.63;3.10;;;16.80;99.90;;;;;;5127000;28;20607;-85
2022/07/05 04:33:13;;;;;;;4.23;3.37;;;16.80;99.90;;;;;;5127687;28;20179;-85
2022/07/05 04:35:39;;;;;;;5.33;4.17;;;16.80;99.90;;;;;;5128486;28;20174;-85
2022/07/05 04:38:04;;;;;;;5.63;3.70;;;16.80;99.90;;;;;;5128533;28;20184;-85
2022/07/05 04:40:30;;;;;;;6.03;3.40;;;16.90;99.90;;;;;;5127840;28;20176;-85
2022/07/05 04:42:56;;;;;;;6.20;3.60;;;16.90;99.90;;;;;;5127526;28;20219;-85
2022/07/05 04:45:22;;;;;;;5.47;3.37;;;16.90;99.90;;;;;;5126304;28;20175;-85
2022/07/05 04:47:47;;;;;;;4.57;3.73;;;17.00;99.90;;;;;;5126375;28;20175;-85
2022/07/05 04:50:13;;;;;;;4.40;4.00;;;17.00;99.90;;;;;;5129027;28;20242;-87
2022/07/05 04:52:39;;;;;;;4.23;3.23;;;17.00;99.90;;;;;;5126999;28;20215;-85
2022/07/05 04:55:05;;;;;;;8.67;3.60;;;17.00;99.90;;;;;;5129010;28;20167;-86
2022/07/05 04:57:38;;;;;;;5.13;3.87;;;17.10;99.90;;;;;;5127572;28;20609;-85
2022/07/05 05:00:05;;;;;;;3.73;3.33;;;17.10;99.90;;;;;;5129267;28;20201;-85
2022/07/05 05:02:30;;;;;;;4.80;3.77;;;17.10;99.90;;;;;;5127524;28;20242;-85
2022/07/05 05:04:56;;;;;;;4.80;3.83;;;17.20;99.90;;;;;;5127519;28;20175;-85
2022/07/05 05:07:22;;;;;;;8.13;4.13;;;;;;;;;;5126033;28;20180;-86
2022/07/05 05:09:48;;;;;;;6.93;4.10;;;17.30;99.90;;;;;;5127240;28;20202;-85
2022/07/05 05:12:14;;;;;;;4.03;3.17;;;17.40;99.90;;;;;;5128631;28;20740;-85
2022/07/05 05:14:40;;;;;;;5.07;3.70;;;17.50;99.90;;;;;;5126439;28;20179;-85
2022/07/05 05:17:06;;;;;;;4.90;4.40;;;;;;;;;;5127350;28;20163;-85
2022/07/05 05:19:31;;;;;;;5.57;3.20;;;17.70;99.90;;;;;;5127560;28;20168;-85
2022/07/05 05:21:57;;;;;;;6.03;3.77;;;17.70;99.90;;;;;;5126439;28;20193;-85
2022/07/05 05:24:23;;;;;;;4.83;3.77;;;17.80;99.90;;;;;;5125901;28;20180;-85
2022/07/05 05:26:50;;;;;;;6.00;3.80;;;17.90;99.90;;;;;;5126140;28;20176;-85
2022/07/05 05:29:17;;;;;;;5.40;3.40;;;18.00;99.90;;;;;;5127632;28;20212;-85
2022/07/05 05:31:43;;;;;;;3.50;3.20;;;18.00;99.90;;;;;;5126376;28;20196;-85
2022/07/05 05:34:09;;;;;;;4.43;3.60;;;18.00;99.90;;;;;;5123810;28;20317;-86
2022/07/05 05:36:34;;;;;;;4.00;3.60;;;18.00;99.90;;;;;;5125434;28;20178;-84
2022/07/05 05:39:00;;;;;;;5.00;3.50;;;17.90;99.90;;;;;;5125775;28;20193;-85
2022/07/05 05:41:27;;;;;;;4.90;3.90;;;18.00;99.90;;;;;;5126268;28;20219;-85
2022/07/05 05:43:53;;;;;;;5.80;3.77;;;;;;;;;;5125548;28;20190;-85
2022/07/05 05:46:19;;;;;;;8.77;3.67;;;18.00;99.90;;;;;;5126070;28;20183;-85
2022/07/05 05:48:45;;;;;;;4.07;3.30;;;18.00;99.90;;;;;;5127472;28;20305;-85
2022/07/05 05:51:10;;;;;;;5.43;3.60;;;18.00;99.90;;;;;;5127709;28;20209;-85
2022/07/05 05:53:36;;;;;;;4.63;3.37;;;18.00;99.90;;;;;;5127039;28;20199;-85
2022/07/05 05:56:02;;;;;;;5.50;3.43;;;18.00;99.90;;;;;;5128318;28;20276;-85
2022/07/05 05:58:28;;;;;;;7.63;3.33;;;18.00;99.90;;;;;;5128023;28;20177;-85
2022/07/05 06:00:53;;;;;;;4.20;3.17;;;17.90;99.90;;;;;;5128233;28;20177;-85
2022/07/05 06:03:27;;;;;;;5.87;3.43;;;17.90;99.90;;;;;;5124882;28;20187;-84
2022/07/05 06:05:53;;;;;;;6.77;3.70;;;18.00;99.90;;;;;;5126563;28;20170;-85
2022/07/05 06:08:19;;;;;;;6.57;3.17;;;18.00;99.90;;;;;;5128656;28;20177;-85
2022/07/05 06:10:45;;;;;;;3.20;2.87;;;18.00;99.90;;;;;;5126191;28;20685;-85
2022/07/05 06:13:13;;;;;;;4.03;2.83;;;18.30;99.90;;;;;;5127658;28;20192;-85
2022/07/05 06:15:41;;;;;;;4.17;3.00;;;18.30;99.90;;;;;;5126501;28;20192;-85
2022/07/05 06:18:11;;;;;;;4.93;3.27;;;18.40;99.90;;;;;;5126895;28;20173;-85
2022/07/05 06:20:38;;;;;;;4.97;3.47;;;18.40;99.90;;;;;;5126795;28;20178;-85
2022/07/05 06:23:06;;;;;;;4.57;2.90;;;18.40;99.90;;;;;;5126681;28;20201;-85
2022/07/05 06:25:32;;;;;;;4.60;3.13;;;18.50;99.90;;;;;;5127404;28;20181;-85
2022/07/05 06:28:04;;;;;;;4.30;2.97;;;18.50;99.90;;;;;;5126398;28;20194;-85
2022/07/05 06:30:31;;;;;;;3.50;3.17;;;18.40;99.90;;;;;;5125655;28;20669;-85
2022/07/05 06:32:58;;;;;;;3.80;3.30;;;18.50;99.90;;;;;;5129236;28;20197;-85
2022/07/05 06:35:24;;;;;;;8.47;3.57;;;18.50;99.90;;;;;;5130456;28;20201;-85
2022/07/05 06:37:53;;;;;;;7.43;3.50;;;18.50;99.90;;;;;;5130126;28;20190;-85
2022/07/05 06:40:20;;;;;;;5.60;3.40;;;18.60;99.90;;;;;;5131725;28;20173;-85
2022/07/05 06:42:46;;;;;;;4.40;3.03;;;18.60;99.90;;;;;;5130890;28;20243;-85
2022/07/05 06:45:12;;;;;;;4.97;3.60;;;18.70;99.90;;;;;;5131888;28;20591;-85
2022/07/05 06:47:38;;;;;;;3.63;2.87;;;18.80;99.90;;;;;;5130038;28;20182;-85
2022/07/05 06:50:05;;;;;;;2.73;2.43;;;18.80;99.90;;;;;;5130673;28;20276;-85
2022/07/05 06:52:32;;;;;;;3.20;2.90;;;18.90;99.90;;;;;;5130177;28;20273;-85
2022/07/05 06:54:59;;;;;;;3.57;2.80;;;19.00;99.90;;;;;;5129837;28;20173;-84
2022/07/05 06:57:25;;;;;;;4.27;2.80;;;19.10;99.90;;;;;;5129548;28;20709;-84
2022/07/05 06:59:51;;;;;;;3.67;2.80;;;19.20;99.90;;;;;;5130870;28;20181;-85
2022/07/05 07:02:18;;;;;;;4.13;2.60;;;19.20;99.90;;;;;;5128890;28;20207;-85
2022/07/05 07:04:45;;;;;;;4.53;2.93;;;19.20;99.90;;;;;;5129344;28;20258;-85
2022/07/05 07:10:03;;;;;;;4.20;2.60;;;19.20;99.90;;;;;;5130655;28;20238;-85
2022/07/05 07:12:29;;;;;;;4.43;2.67;;;19.20;99.90;;;;;;5128527;28;20204;-85
2022/07/05 07:14:56;;;;;;;2.63;2.43;;;19.10;99.90;;;;;;5129121;28;20178;-85
2022/07/05 07:17:22;;;;;;;3.03;2.30;;;19.00;99.90;;;;;;5128895;28;20174;-85
2022/07/05 07:19:48;;;;;;;6.27;2.77;;;19.00;99.90;;;;;;5129422;28;20207;-85
2022/07/05 07:22:14;;;;;;;3.33;2.47;;;19.00;99.90;;;;;;5129016;28;20199;-85
2022/07/05 07:24:40;;;;;;;3.23;2.53;;;18.90;99.90;;;;;;5129918;28;20210;-85
2022/07/05 07:27:06;;;;;;;2.90;2.50;;;19.00;99.90;;;;;;5129279;28;20204;-85
2022/07/05 07:29:33;;;;;;;2.70;2.50;;;19.00;99.90;;;;;;5129469;28;20206;-85
2022/07/05 07:32:00;;;;;;;4.73;2.67;;;19.10;99.90;;;;;;5130482;28;20190;-85
2022/07/05 07:34:28;;;;;;;5.13;2.70;;;19.10;99.90;;;;;;5128455;28;20174;-85
2022/07/05 07:36:55;;;;;;;3.43;3.13;;;19.30;99.90;;;;;;5128555;28;20173;-85
2022/07/05 07:39:21;;;;;;;3.80;2.57;;;19.50;99.90;;;;;;5129496;27;20211;-85
2022/07/05 07:41:47;;;;;;;3.30;2.83;;;19.60;99.90;;;;;;5128936;28;20202;-85
2022/07/05 07:44:13;;;;;;;2.90;2.57;;;19.60;99.90;;;;;;5128264;28;20273;-85
2022/07/05 07:46:39;;;;;;;2.80;2.60;;;19.70;99.90;;;;;;5129630;28;20203;-86
2022/07/05 07:49:05;;;;;;;4.23;3.00;;;19.70;99.90;;;;;;5129624;28;20294;-85
2022/07/05 07:51:31;;;;;;;5.37;2.37;;;19.70;99.90;;;;;;5130068;28;20199;-85
2022/07/05 07:53:58;;;;;;;4.00;2.37;;;19.80;99.90;;;;;;5131288;28;20189;-85
2022/07/05 07:56:23;;;;;;;2.97;2.13;;;19.90;99.90;;;;;;5130493;28;20238;-85
2022/07/05 07:58:49;;;;;;;3.50;2.23;;;19.90;99.90;;;;;;5126410;28;20523;-85
2022/07/05 08:01:15;;;;;;;4.70;2.10;;;19.90;99.90;;;;;;5125757;28;20190;-85
2022/07/05 08:03:41;;;;;;;2.90;2.40;;;19.90;99.90;;;;;;5124837;28;20669;-85
2022/07/05 08:06:10;;;;;;;8.43;2.40;;;20.00;99.90;;;;;;5124842;28;20171;-85
2022/07/05 08:08:37;;;;;;;4.03;2.30;;;20.00;99.90;;;;;;5125122;28;20174;-86
2022/07/05 08:11:03;;;;;;;5.10;2.40;;;20.10;99.90;;;;;;5125303;28;20288;-86
2022/07/05 08:13:29;;;;;;;2.20;2.00;;;20.10;99.90;;;;;;5125238;28;20200;-85
2022/07/05 08:15:54;;;;;;;4.30;2.33;;;20.10;99.90;;;;;;5125898;28;20627;-86
2022/07/05 08:23:48;;;;;;;2.60;1.90;;;20.50;99.90;;;;;;5125782;28;20216;-85
2022/07/05 08:26:14;;;;;;;3.80;1.97;;;20.70;99.90;;;;;;5126101;28;20175;-85
2022/07/05 08:28:40;;;;;;;2.30;1.90;;;20.70;99.90;;;;;;5124283;28;20178;-86
2022/07/05 08:31:05;;;;;;;4.87;2.57;;;20.90;99.90;;;;;;5124067;28;20206;-86
2022/07/05 08:33:31;;;;;;;2.90;2.27;;;21.10;99.90;;;;;;5124302;28;20175;-86
2022/07/05 08:35:57;;;;;;;5.63;2.30;;;21.20;99.90;;;;;;5126219;27;20176;-86
2022/07/05 08:38:22;;;;;;;3.77;2.27;;;21.30;99.90;;;;;;5126250;28;20188;-86
2022/07/05 08:40:51;;;;;;;4.10;2.50;;;21.40;99.90;;;;;;5125815;28;20621;-86
2022/07/05 08:43:18;;;;;;;3.00;1.73;;;21.40;99.90;;;;;;5125416;28;20224;-85
2022/07/05 08:45:44;;;;;;;4.23;1.80;;;21.60;99.90;;;;;;5125401;28;20176;-86
2022/07/05 08:48:11;;;;;;;3.10;1.73;;;21.70;99.90;;;;;;5125912;28;20199;-86
2022/07/05 08:50:45;;;;;;;2.67;1.70;;;21.70;99.90;;;;;;5126935;28;20211;-87
2022/07/05 08:53:14;;;;;;;3.73;1.80;;;21.70;99.90;;;;;;5126729;28;20227;-86
2022/07/05 08:55:40;;;;;;;3.27;1.70;;;21.80;99.90;;;;;;5126063;28;20233;-87
2022/07/05 08:58:06;;;;;;;2.73;1.60;;;21.90;99.90;;;;;;5127285;28;20176;-86
2022/07/05 09:00:32;;;;;;;6.20;1.40;;;22.10;99.90;;;;;;5127626;28;20180;-86
2022/07/05 09:02:58;;;;;;;2.17;1.60;;;22.30;99.90;;;;;;5129058;28;20191;-86
2022/07/05 09:05:25;;;;;;;3.53;2.00;;;22.50;99.90;;;;;;5133287;28;20180;-87
2022/07/05 09:08:02;;;;;;;3.80;1.70;;;22.70;99.90;;;;;;5127480;28;20179;-86
2022/07/05 09:10:30;;;;;;;3.03;1.60;;;22.80;99.90;;;;;;5127773;28;20205;-87
2022/07/05 09:12:56;;;;;;;3.07;1.70;;;23.00;99.90;;;;;;5128451;28;20562;-87
2022/07/05 09:15:23;;;;;;;2.40;1.73;;;23.20;99.90;;;;;;5127546;28;20183;-86
2022/07/05 09:17:49;;;;;;;2.57;1.60;;;23.30;99.90;;;;;;5127668;28;20183;-87
2022/07/05 09:20:17;;;;;;;2.87;1.63;;;23.40;99.90;;;;;;5127400;28;20189;-87
2022/07/05 09:22:43;;;;;;;3.10;1.90;;;23.10;99.90;;;;;;5127431;28;20277;-87
2022/07/05 09:25:17;;;;;;;3.70;1.73;;;22.80;99.90;;;;;;5128294;28;20707;-87
2022/07/05 09:27:57;;;;;;;3.23;1.50;;;22.50;99.90;;;;;;5135067;28;20242;-87
2022/07/05 09:30:33;;;;;;;2.33;1.67;;;22.10;99.90;;;;;;5137255;28;20207;-87
2022/07/05 09:33:10;;;;;;;2.33;1.70;;;21.80;99.90;;;;;;5125748;28;20254;-87
2022/07/05 09:35:42;;;;;;;1.77;1.47;;;21.70;99.90;;;;;;5123065;28;20180;-86
2022/07/05 09:38:28;;;;;;;1.63;1.53;;;21.50;99.90;;;;;;5122458;28;20687;-87
2022/07/05 09:40:56;;;;;;;1.80;1.70;;;21.40;99.90;;;;;;5124076;28;20188;-87
2022/07/05 09:43:26;;;;;;;3.83;2.00;;;21.40;99.90;;;;;;5123788;28;20179;-86
2022/07/05 09:46:03;;;;;;;2.07;1.80;;;21.50;99.90;;;;;;5124186;28;20191;-86
2022/07/05 09:48:30;;;;;;;2.57;1.57;;;22.00;99.90;;;;;;5125408;28;20180;-87
2022/07/05 09:51:10;;;;;;;2.27;1.40;;;22.90;99.90;;;;;;5122711;28;20276;-87
2022/07/05 09:53:46;;;;;;;2.90;1.43;;;22.90;99.90;;;;;;5123656;28;20217;-87
2022/07/05 09:56:12;;;;;;;1.70;1.60;;;23.40;99.90;;;;;;5123255;28;20209;-87
2022/07/05 09:58:37;;;;;;;2.37;1.30;;;23.80;99.90;;;;;;5123172;28;20176;-87
2022/07/05 10:01:22;;;;;;;4.53;1.70;;;24.00;99.90;;;;;;5123720;28;20270;-87
2022/07/05 10:03:57;;;;;;;2.10;1.30;;;24.40;99.90;;;;;;5122979;28;20186;-86
2022/07/05 10:06:24;;;;;;;2.67;1.63;;;24.60;99.90;;;;;;5124797;28;20155;-85
2022/07/05 10:08:50;;;;;;;3.93;1.40;;;24.80;99.90;;;;;;5126790;28;20655;-85
2022/07/05 10:11:20;;;;;;;4.23;1.40;;;24.60;99.90;;;;;;5129381;28;20199;-87
2022/07/05 10:13:49;;;;;;;2.13;1.53;;;24.20;99.90;;;;;;5127978;28;20263;-84
2022/07/05 10:16:19;;;;;;;3.93;1.30;;;23.80;99.90;;;;;;5129282;28;20228;-85
2022/07/05 10:18:56;;;;;;;2.00;1.40;;;23.60;99.90;;;;;;5129194;28;20180;-85
2022/07/05 10:21:23;;;;;;;3.10;1.60;;;23.60;99.90;;;;;;5128264;28;20210;-85
2022/07/05 10:23:56;;;;;;;1.50;1.30;;;23.90;99.90;;;;;;5130758;28;20215;-87
2022/07/05 10:26:23;;;;;;;4.57;1.77;;;24.30;99.90;;;;;;5130672;28;20594;-85
2022/07/05 10:28:51;;;;;;;2.30;1.63;;;24.70;99.90;;;;;;5130107;28;20184;-85
2022/07/05 10:31:18;;;;;;;1.50;1.10;;;24.90;99.90;;;;;;5129867;28;20214;-85
2022/07/05 10:33:45;;;;;;;4.20;1.70;;;25.10;99.90;;;;;;5129987;28;20176;-85
2022/07/05 10:36:12;;;;;;;2.40;1.27;;;25.20;99.90;;;;;;5128924;28;20176;-84
2022/07/05 10:38:40;;;;;;;3.07;1.43;;;25.40;99.90;;;;;;5129345;28;20209;-85
2022/07/05 10:41:08;;;;;;;4.07;1.30;;;25.60;99.90;;;;;;5129081;28;20183;-85
2022/07/05 10:43:34;;;;;;;2.10;1.13;;;25.90;99.90;;;;;;5129561;28;20184;-85
2022/07/05 10:46:02;;;;;;;2.77;1.17;;;26.00;99.90;;;;;;5127340;28;20180;-85
2022/07/05 10:48:29;;;;;;;1.43;1.27;;;26.00;99.90;;;;;;5126546;28;20635;-85
2022/07/05 10:51:00;;;;;;;1.27;1.10;;;26.20;99.90;;;;;;5130622;28;20200;-85
2022/07/05 10:54:03;;;;;;;2.07;1.30;;;26.20;99.90;;;;;;5131742;28;20163;-85
2022/07/05 10:56:29;;;;;;;3.27;1.40;;;26.40;99.90;;;;;;5129518;28;20172;-86
2022/07/05 10:59:09;;;;;;;2.00;1.20;;;26.40;99.90;;;;;;5128448;28;20617;-85
2022/07/05 11:01:40;;;;;;;2.73;1.30;;;26.50;99.90;;;;;;5132223;28;20167;-85
2022/07/05 11:04:12;;;;;;;1.67;1.40;;;26.50;99.90;;;;;;5139930;28;20643;-84
2022/07/05 11:06:38;;;;;;;1.73;1.40;;;26.70;99.90;;;;;;5137629;28;20200;-85
2022/07/05 11:09:04;;;;;;;3.17;1.37;;;26.30;99.90;;;;;;5124579;28;20179;-85
2022/07/05 11:11:33;;;;;;;3.30;1.30;;;26.20;99.90;;;;;;5123955;28;20192;-85
2022/07/05 11:14:04;;;;;;;5.73;1.50;;;26.00;99.90;;;;;;5124635;28;20183;-85
2022/07/05 11:16:35;;;;;;;2.60;1.23;;;25.50;99.90;;;;;;5126484;28;20161;-85
2022/07/05 11:19:07;;;;;;;3.37;1.47;;;25.00;99.90;;;;;;5123506;28;20225;-84
2022/07/05 11:21:34;;;;;;;1.80;1.40;;;24.60;99.90;;;;;;5123121;28;20252;-85
2022/07/05 11:24:24;;;;;;;1.87;1.20;;;24.20;99.90;;;;;;5123651;28;20186;-85
2022/07/05 11:26:54;;;;;;;3.57;1.40;;;23.80;99.90;;;;;;5122858;28;20199;-87
2022/07/05 11:29:42;;;;;;;2.50;1.10;;;23.60;99.90;;;;;;5122101;28;20329;-85
2022/07/05 11:32:10;;;;;;;1.10;1.00;;;23.30;99.90;;;;;;5122579;28;20284;-84
2022/07/05 11:34:37;;;;;;;6.87;1.60;;;23.10;99.90;;;;;;5122501;28;20213;-86
2022/07/05 11:37:24;;;;;;;4.27;1.43;;;23.00;99.90;;;;;;5120991;28;20214;-86
2022/07/05 11:40:09;;;;;;;2.03;1.57;;;22.90;99.90;;;;;;5122249;28;20185;-86
2022/07/05 11:42:37;;;;;;;3.13;1.53;;;22.80;99.90;;;;;;5122018;28;20291;-86
2022/07/05 11:45:05;;;;;;;4.67;1.93;;;23.20;99.90;;;;;;5123537;28;20204;-86
2022/07/05 11:47:31;;;;;;;2.50;1.37;;;24.00;99.90;;;;;;5122772;28;20667;-85
2022/07/05 11:49:57;;;;;;;1.97;1.50;;;24.80;99.90;;;;;;5121988;28;20210;-86
2022/07/05 11:52:28;;;;;;;2.73;1.30;;;24.90;99.90;;;;;;5121228;28;20237;-86
2022/07/05 11:54:54;;;;;;;1.73;1.30;;;24.60;99.90;;;;;;5122490;28;20170;-86
2022/07/05 11:57:21;;;;;;;2.93;1.47;;;24.20;99.90;;;;;;5120950;28;20184;-84
2022/07/05 11:59:47;;;;;;;4.60;1.40;;;23.80;99.90;;;;;;5121546;28;20237;-83
2022/07/05 12:02:13;;;;;;;2.87;1.50;;;23.50;99.90;;;;;;5121615;28;20200;-82
2022/07/05 12:04:39;;;;;;;2.83;1.37;;;23.20;99.90;;;;;;5121021;28;20184;-84
2022/07/05 12:07:05;;;;;;;1.47;1.37;;;23.00;99.90;;;;;;5122297;28;20182;-85
2022/07/05 12:15:07;;;;;;;2.40;1.47;;;24.30;99.90;;;;;;5126427;28;20170;-85
2022/07/05 12:17:38;;;;;;;1.57;1.40;;;25.20;99.90;;;;;;5125029;28;20197;-85
2022/07/05 12:20:05;;;;;;;1.40;1.30;;;25.80;99.90;;;;;;5128205;28;20176;-85
2022/07/05 12:22:36;;;;;;;1.73;1.43;;;26.30;99.90;;;;;;5126366;28;20201;-85
2022/07/05 12:25:04;;;;;;;2.67;1.40;;;26.20;99.90;;;;;;5126365;28;20309;-85
2022/07/05 12:27:32;;;;;;;1.60;1.40;;;25.50;99.90;;;;;;5125697;28;20186;-85
2022/07/05 12:29:58;;;;;;;1.90;1.50;;;25.20;99.90;;;;;;5126166;28;20234;-84
2022/07/05 12:32:24;;;;;;;3.27;1.50;;;24.70;99.90;;;;;;5125611;28;20209;-86
2022/07/05 12:34:50;;;;;;;3.10;1.40;;;24.30;99.90;;;;;;5126044;28;20178;-87
2022/07/05 12:37:23;;;;;;;2.47;1.80;;;24.00;99.90;;;;;;5127651;28;20257;-87
2022/07/05 12:39:50;;;;;;;1.43;1.33;;;23.90;99.90;;;;;;5132747;28;20199;-86
2022/07/05 12:42:35;;;;;;;4.83;1.70;;;24.40;99.90;;;;;;5136693;28;20187;-86
2022/07/05 12:45:16;;;;;;;2.90;1.47;;;25.30;99.90;;;;;;5131936;28;20236;-84
2022/07/05 12:47:55;;;;;;;2.43;1.70;;;26.00;99.90;;;;;;5124376;28;20671;-86
2022/07/05 12:50:29;;;;;;;1.27;1.10;;;26.70;99.90;;;;;;5125211;28;20191;-86
2022/07/05 12:58:51;;;;;;;3.77;1.57;;;25.40;99.90;;;;;;5123957;28;20181;-86
2022/07/05 13:01:37;;;;;;;3.50;1.77;;;25.70;99.90;;;;;;5122921;28;20206;-86
2022/07/05 13:04:10;;;;;;;2.00;1.40;;;25.50;99.90;;;;;;5123077;28;20186;-87
2022/07/05 13:07:00;;;;;;;2.00;1.47;;;25.00;99.90;;;;;;5123683;28;20192;-87
2022/07/05 13:09:31;;;;;;;2.73;1.60;;;24.60;99.90;;;;;;5123206;28;20555;-86
2022/07/05 13:12:21;;;;;;;2.13;1.30;;;24.20;99.90;;;;;;5124371;28;20206;-86
2022/07/05 13:14:48;;;;;;;2.03;1.50;;;24.00;99.90;;;;;;5124327;28;20267;-86
2022/07/05 13:17:21;;;;;;;2.07;1.43;;;23.80;99.90;;;;;;5125392;28;20174;-86
2022/07/05 13:19:49;;;;;;;8.83;1.83;;;23.60;99.90;;;;;;5122052;28;20192;-85